Terminal Aerodrome Forecast
Issued by NWS Missoula, MT

Home | Current Version | Previous Version | Text Only | Print | Product List | Glossary On
Versions: 1 2 3 4 5 6 7 8 9 10 11 12 13 14
000
FTUS45 KMSO 152329
TAFMSO
TAF
KMSO 152329Z 1600/1624 34009KT P6SM SKC
     FM160400 VRB03KT P6SM SKC
     FM162100 30010KT P6SM BKN080=

USA.gov is the U.S. government's official web portal to all federal, state and local government web resources and services.